sensor_id;sensor_type;location;lat;lon;timestamp;temperature;humidity
40828;DHT22;26549;50.918;5.338;2024-03-23T00:52:13;9.10;99.90
40828;DHT22;26549;50.918;5.338;2024-03-23T00:54:40;9.20;99.90
40828;DHT22;26549;50.918;5.338;2024-03-23T00:57:06;9.30;99.90
40828;DHT22;26549;50.918;5.338;2024-03-23T00:59:35;9.20;99.90
40828;DHT22;26549;50.918;5.338;2024-03-23T01:02:01;9.40;99.90
40828;DHT22;26549;50.918;5.338;2024-03-23T01:04:27;9.60;99.90
40828;DHT22;26549;50.918;5.338;2024-03-23T01:06:53;9.60;99.90
40828;DHT22;26549;50.918;5.338;2024-03-23T01:09:19;9.60;99.90
40828;DHT22;26549;50.918;5.338;2024-03-23T01:11:45;9.60;99.90
40828;DHT22;26549;50.918;5.338;2024-03-23T01:14:10;9.50;99.90
40828;DHT22;26549;50.918;5.338;2024-03-23T01:16:36;9.70;99.90
40828;DHT22;26549;50.918;5.338;2024-03-23T01:19:05;9.80;99.90
40828;DHT22;26549;50.918;5.338;2024-03-23T01:21:31;9.90;99.90
40828;DHT22;26549;50.918;5.338;2024-03-23T01:23:58;10.00;99.90
40828;DHT22;26549;50.918;5.338;2024-03-23T01:26:24;9.90;99.90
40828;DHT22;26549;50.918;5.338;2024-03-23T01:28:51;9.90;99.90
40828;DHT22;26549;50.918;5.338;2024-03-23T01:31:18;9.80;99.90
40828;DHT22;26549;50.918;5.338;2024-03-23T01:33:45;9.70;99.90
40828;DHT22;26549;50.918;5.338;2024-03-23T01:36:13;9.80;99.90
40828;DHT22;26549;50.918;5.338;2024-03-23T01:38:42;9.80;99.90
40828;DHT22;26549;50.918;5.338;2024-03-23T01:41:07;9.80;99.90
40828;DHT22;26549;50.918;5.338;2024-03-23T01:43:33;9.80;99.90
40828;DHT22;26549;50.918;5.338;2024-03-23T01:46:00;9.70;99.90
40828;DHT22;26549;50.918;5.338;2024-03-23T01:48:26;9.60;99.90
40828;DHT22;26549;50.918;5.338;2024-03-23T01:50:52;9.70;99.90
40828;DHT22;26549;50.918;5.338;2024-03-23T01:53:17;9.60;99.90
40828;DHT22;26549;50.918;5.338;2024-03-23T01:55:45;9.60;99.90
40828;DHT22;26549;50.918;5.338;2024-03-23T01:58:10;9.80;99.90
40828;DHT22;26549;50.918;5.338;2024-03-23T02:00:38;9.70;99.90
40828;DHT22;26549;50.918;5.338;2024-03-23T02:03:22;9.70;99.90
40828;DHT22;26549;50.918;5.338;2024-03-23T02:05:48;9.70;99.90
40828;DHT22;26549;50.918;5.338;2024-03-23T02:08:14;9.70;99.90
40828;DHT22;26549;50.918;5.338;2024-03-23T02:10:40;9.70;99.90
40828;DHT22;26549;50.918;5.338;2024-03-23T02:13:06;9.70;99.90
40828;DHT22;26549;50.918;5.338;2024-03-23T02:15:32;9.70;99.90
40828;DHT22;26549;50.918;5.338;2024-03-23T02:17:57;9.70;99.90
40828;DHT22;26549;50.918;5.338;2024-03-23T02:20:23;9.60;99.90
40828;DHT22;26549;50.918;5.338;2024-03-23T02:22:52;9.50;99.90
40828;DHT22;26549;50.918;5.338;2024-03-23T02:25:18;9.50;99.90
40828;DHT22;26549;50.918;5.338;2024-03-23T02:27:44;9.50;99.90
40828;DHT22;26549;50.918;5.338;2024-03-23T02:30:10;9.10;99.90
40828;DHT22;26549;50.918;5.338;2024-03-23T02:32:36;8.80;99.90
40828;DHT22;26549;50.918;5.338;2024-03-23T02:35:01;8.90;99.90
40828;DHT22;26549;50.918;5.338;2024-03-23T02:37:28;8.80;99.90
40828;DHT22;26549;50.918;5.338;2024-03-23T02:39:55;9.00;99.90
40828;DHT22;26549;50.918;5.338;2024-03-23T02:42:23;9.10;99.90
40828;DHT22;26549;50.918;5.338;2024-03-23T02:44:49;9.10;99.90
40828;DHT22;26549;50.918;5.338;2024-03-23T02:47:15;9.20;99.90
40828;DHT22;26549;50.918;5.338;2024-03-23T02:49:42;9.20;99.90
40828;DHT22;26549;50.918;5.338;2024-03-23T02:52:08;9.20;99.90
40828;DHT22;26549;50.918;5.338;2024-03-23T02:54:34;9.20;99.90
40828;DHT22;26549;50.918;5.338;2024-03-23T02:56:59;9.20;99.90
40828;DHT22;26549;50.918;5.338;2024-03-23T02:59:25;9.20;99.90
40828;DHT22;26549;50.918;5.338;2024-03-23T03:01:51;9.30;99.90
40828;DHT22;26549;50.918;5.338;2024-03-23T03:04:17;9.40;99.90
40828;DHT22;26549;50.918;5.338;2024-03-23T03:06:47;9.30;99.90
40828;DHT22;26549;50.918;5.338;2024-03-23T03:09:18;9.10;99.90
40828;DHT22;26549;50.918;5.338;2024-03-23T03:11:44;9.20;99.90
40828;DHT22;26549;50.918;5.338;2024-03-23T03:14:11;9.20;99.90
40828;DHT22;26549;50.918;5.338;2024-03-23T03:16:37;8.90;99.90
40828;DHT22;26549;50.918;5.338;2024-03-23T03:19:03;8.80;99.90
40828;DHT22;26549;50.918;5.338;2024-03-23T03:21:32;8.80;99.90
40828;DHT22;26549;50.918;5.338;2024-03-23T03:23:59;9.00;99.90
40828;DHT22;26549;50.918;5.338;2024-03-23T03:26:26;9.00;99.90
40828;DHT22;26549;50.918;5.338;2024-03-23T03:28:54;9.00;99.90
40828;DHT22;26549;50.918;5.338;2024-03-23T03:31:20;9.10;99.90
40828;DHT22;26549;50.918;5.338;2024-03-23T03:33:46;9.20;99.90
40828;DHT22;26549;50.918;5.338;2024-03-23T03:36:12;9.20;99.90
40828;DHT22;26549;50.918;5.338;2024-03-23T03:38:37;9.40;99.90
40828;DHT22;26549;50.918;5.338;2024-03-23T03:41:06;9.40;99.90
40828;DHT22;26549;50.918;5.338;2024-03-23T03:43:33;9.30;99.90
40828;DHT22;26549;50.918;5.338;2024-03-23T03:46:00;9.40;99.90
40828;DHT22;26549;50.918;5.338;2024-03-23T03:48:26;9.50;99.90
40828;DHT22;26549;50.918;5.338;2024-03-23T03:50:53;9.50;99.90
40828;DHT22;26549;50.918;5.338;2024-03-23T03:53:20;9.50;99.90
40828;DHT22;26549;50.918;5.338;2024-03-23T03:55:46;9.50;99.90
40828;DHT22;26549;50.918;5.338;2024-03-23T03:58:12;9.50;99.90
40828;DHT22;26549;50.918;5.338;2024-03-23T04:00:39;9.40;99.90
40828;DHT22;26549;50.918;5.338;2024-03-23T04:03:10;9.40;99.90
40828;DHT22;26549;50.918;5.338;2024-03-23T04:05:37;9.40;99.90
40828;DHT22;26549;50.918;5.338;2024-03-23T04:08:04;9.40;99.90
40828;DHT22;26549;50.918;5.338;2024-03-23T04:10:30;9.30;99.90
40828;DHT22;26549;50.918;5.338;2024-03-23T04:12:56;9.30;99.90
40828;DHT22;26549;50.918;5.338;2024-03-23T04:15:22;9.20;99.90
40828;DHT22;26549;50.918;5.338;2024-03-23T04:17:48;9.20;99.90
40828;DHT22;26549;50.918;5.338;2024-03-23T04:20:14;9.20;99.90
40828;DHT22;26549;50.918;5.338;2024-03-23T04:22:42;9.30;99.90
40828;DHT22;26549;50.918;5.338;2024-03-23T04:25:11;9.40;99.90
40828;DHT22;26549;50.918;5.338;2024-03-23T04:27:38;9.10;99.90
40828;DHT22;26549;50.918;5.338;2024-03-23T04:30:05;9.10;99.90
40828;DHT22;26549;50.918;5.338;2024-03-23T04:32:37;9.10;99.90
40828;DHT22;26549;50.918;5.338;2024-03-23T04:35:03;9.10;99.90
40828;DHT22;26549;50.918;5.338;2024-03-23T04:37:35;9.10;99.90
40828;DHT22;26549;50.918;5.338;2024-03-23T04:40:02;9.10;99.90
40828;DHT22;26549;50.918;5.338;2024-03-23T04:42:33;9.10;99.90
40828;DHT22;26549;50.918;5.338;2024-03-23T04:45:01;9.00;99.90
40828;DHT22;26549;50.918;5.338;2024-03-23T04:47:29;8.90;99.90
40828;DHT22;26549;50.918;5.338;2024-03-23T04:49:55;8.90;99.90
40828;DHT22;26549;50.918;5.338;2024-03-23T04:52:22;8.90;99.90
40828;DHT22;26549;50.918;5.338;2024-03-23T04:54:48;9.20;99.90
40828;DHT22;26549;50.918;5.338;2024-03-23T04:57:13;8.90;99.90
40828;DHT22;26549;50.918;5.338;2024-03-23T04:59:39;9.00;99.90
40828;DHT22;26549;50.918;5.338;2024-03-23T05:02:05;8.90;99.90
40828;DHT22;26549;50.918;5.338;2024-03-23T05:04:35;8.90;99.90
40828;DHT22;26549;50.918;5.338;2024-03-23T05:07:02;8.80;99.90
40828;DHT22;26549;50.918;5.338;2024-03-23T05:09:30;8.80;99.90
40828;DHT22;26549;50.918;5.338;2024-03-23T05:11:57;8.90;99.90
40828;DHT22;26549;50.918;5.338;2024-03-23T05:14:24;8.90;99.90
40828;DHT22;26549;50.918;5.338;2024-03-23T05:16:50;8.80;99.90
40828;DHT22;26549;50.918;5.338;2024-03-23T05:19:17;8.90;99.90
40828;DHT22;26549;50.918;5.338;2024-03-23T05:21:44;8.80;99.90
40828;DHT22;26549;50.918;5.338;2024-03-23T05:24:10;8.80;99.90
40828;DHT22;26549;50.918;5.338;2024-03-23T05:26:40;8.80;99.90
40828;DHT22;26549;50.918;5.338;2024-03-23T05:29:07;8.80;99.90
40828;DHT22;26549;50.918;5.338;2024-03-23T05:31:37;8.70;99.90
40828;DHT22;26549;50.918;5.338;2024-03-23T05:34:04;8.60;99.90
40828;DHT22;26549;50.918;5.338;2024-03-23T05:36:30;8.50;99.90
40828;DHT22;26549;50.918;5.338;2024-03-23T05:38:59;8.60;99.90
40828;DHT22;26549;50.918;5.338;2024-03-23T05:41:25;8.70;99.90
40828;DHT22;26549;50.918;5.338;2024-03-23T05:43:51;8.80;99.90
40828;DHT22;26549;50.918;5.338;2024-03-23T05:46:17;8.70;99.90
40828;DHT22;26549;50.918;5.338;2024-03-23T05:48:43;8.70;99.90
40828;DHT22;26549;50.918;5.338;2024-03-23T05:51:11;8.70;99.90
40828;DHT22;26549;50.918;5.338;2024-03-23T05:53:38;8.70;99.90
40828;DHT22;26549;50.918;5.338;2024-03-23T05:56:04;8.70;99.90
40828;DHT22;26549;50.918;5.338;2024-03-23T05:58:31;8.60;99.90
40828;DHT22;26549;50.918;5.338;2024-03-23T06:01:03;8.70;99.90
40828;DHT22;26549;50.918;5.338;2024-03-23T06:03:30;8.80;99.90
40828;DHT22;26549;50.918;5.338;2024-03-23T06:05:56;8.80;99.90
40828;DHT22;26549;50.918;5.338;2024-03-23T06:08:22;8.80;99.90
40828;DHT22;26549;50.918;5.338;2024-03-23T06:10:51;8.80;99.90
40828;DHT22;26549;50.918;5.338;2024-03-23T06:13:17;8.60;99.90
40828;DHT22;26549;50.918;5.338;2024-03-23T06:15:43;8.60;99.90
40828;DHT22;26549;50.918;5.338;2024-03-23T06:18:11;8.60;99.90
40828;DHT22;26549;50.918;5.338;2024-03-23T06:20:39;8.70;99.90
40828;DHT22;26549;50.918;5.338;2024-03-23T06:23:06;8.80;99.90
40828;DHT22;26549;50.918;5.338;2024-03-23T06:25:32;8.90;99.90
40828;DHT22;26549;50.918;5.338;2024-03-23T06:27:57;8.90;99.90
40828;DHT22;26549;50.918;5.338;2024-03-23T06:30:27;8.90;99.90
40828;DHT22;26549;50.918;5.338;2024-03-23T06:32:55;8.90;99.90
40828;DHT22;26549;50.918;5.338;2024-03-23T06:35:20;9.00;99.90
40828;DHT22;26549;50.918;5.338;2024-03-23T06:37:46;9.10;99.90
40828;DHT22;26549;50.918;5.338;2024-03-23T06:40:12;9.20;99.90
40828;DHT22;26549;50.918;5.338;2024-03-23T06:42:38;9.20;99.90
40828;DHT22;26549;50.918;5.338;2024-03-23T06:45:04;9.30;99.90
40828;DHT22;26549;50.918;5.338;2024-03-23T06:47:32;9.40;99.90
40828;DHT22;26549;50.918;5.338;2024-03-23T06:50:00;9.60;99.90
40828;DHT22;26549;50.918;5.338;2024-03-23T06:52:29;9.70;99.90
40828;DHT22;26549;50.918;5.338;2024-03-23T06:54:55;9.70;99.90
40828;DHT22;26549;50.918;5.338;2024-03-23T06:57:23;9.80;99.90
40828;DHT22;26549;50.918;5.338;2024-03-23T06:59:51;9.80;99.90
40828;DHT22;26549;50.918;5.338;2024-03-23T07:02:17;9.70;99.90
40828;DHT22;26549;50.918;5.338;2024-03-23T07:04:43;9.80;99.90
40828;DHT22;26549;50.918;5.338;2024-03-23T07:07:09;9.70;99.90
40828;DHT22;26549;50.918;5.338;2024-03-23T07:09:35;9.60;99.90
40828;DHT22;26549;50.918;5.338;2024-03-23T07:12:00;9.30;99.90
40828;DHT22;26549;50.918;5.338;2024-03-23T07:14:27;9.30;99.90
40828;DHT22;26549;50.918;5.338;2024-03-23T07:16:55;9.20;99.90
40828;DHT22;26549;50.918;5.338;2024-03-23T07:19:22;9.20;99.90
40828;DHT22;26549;50.918;5.338;2024-03-23T07:21:47;9.10;99.90
40828;DHT22;26549;50.918;5.338;2024-03-23T07:24:20;9.10;99.90
40828;DHT22;26549;50.918;5.338;2024-03-23T07:26:46;9.30;99.90
40828;DHT22;26549;50.918;5.338;2024-03-23T07:29:15;9.50;99.90
40828;DHT22;26549;50.918;5.338;2024-03-23T07:31:41;9.40;99.90
40828;DHT22;26549;50.918;5.338;2024-03-23T07:34:07;9.70;99.90
40828;DHT22;26549;50.918;5.338;2024-03-23T07:36:32;9.80;99.90
40828;DHT22;26549;50.918;5.338;2024-03-23T07:38:58;9.60;99.90
40828;DHT22;26549;50.918;5.338;2024-03-23T07:41:24;9.50;99.90
40828;DHT22;26549;50.918;5.338;2024-03-23T07:43:50;9.40;99.90
40828;DHT22;26549;50.918;5.338;2024-03-23T07:46:16;9.30;99.90
40828;DHT22;26549;50.918;5.338;2024-03-23T07:48:42;9.30;99.90
40828;DHT22;26549;50.918;5.338;2024-03-23T07:51:10;9.30;99.90
40828;DHT22;26549;50.918;5.338;2024-03-23T07:53:37;9.40;99.90
40828;DHT22;26549;50.918;5.338;2024-03-23T07:56:05;9.20;99.90
40828;DHT22;26549;50.918;5.338;2024-03-23T07:58:31;9.20;99.90
40828;DHT22;26549;50.918;5.338;2024-03-23T08:01:07;9.40;99.90
40828;DHT22;26549;50.918;5.338;2024-03-23T08:03:39;9.40;99.90
40828;DHT22;26549;50.918;5.338;2024-03-23T08:06:19;9.30;99.90
40828;DHT22;26549;50.918;5.338;2024-03-23T08:08:56;9.60;99.90
40828;DHT22;26549;50.918;5.338;2024-03-23T08:11:35;9.80;99.90
40828;DHT22;26549;50.918;5.338;2024-03-23T08:14:03;10.00;99.90
40828;DHT22;26549;50.918;5.338;2024-03-23T08:16:30;10.00;99.90
40828;DHT22;26549;50.918;5.338;2024-03-23T08:18:55;10.10;99.90
40828;DHT22;26549;50.918;5.338;2024-03-23T08:21:21;10.00;99.90
40828;DHT22;26549;50.918;5.338;2024-03-23T08:23:50;9.80;99.90
40828;DHT22;26549;50.918;5.338;2024-03-23T08:26:16;9.70;99.90
40828;DHT22;26549;50.918;5.338;2024-03-23T08:28:46;9.50;99.90
40828;DHT22;26549;50.918;5.338;2024-03-23T08:31:19;9.40;99.90
40828;DHT22;26549;50.918;5.338;2024-03-23T08:33:45;9.30;99.90
40828;DHT22;26549;50.918;5.338;2024-03-23T08:36:16;9.50;99.90
40828;DHT22;26549;50.918;5.338;2024-03-23T08:38:44;9.50;99.90
40828;DHT22;26549;50.918;5.338;2024-03-23T08:41:10;9.70;99.90
40828;DHT22;26549;50.918;5.338;2024-03-23T08:43:39;9.90;99.90
40828;DHT22;26549;50.918;5.338;2024-03-23T08:46:09;9.90;99.90
40828;DHT22;26549;50.918;5.338;2024-03-23T08:48:37;10.10;99.90
40828;DHT22;26549;50.918;5.338;2024-03-23T08:51:04;10.30;99.90
40828;DHT22;26549;50.918;5.338;2024-03-23T08:53:30;10.40;99.90
40828;DHT22;26549;50.918;5.338;2024-03-23T08:55:57;10.50;99.90
40828;DHT22;26549;50.918;5.338;2024-03-23T08:58:26;10.40;99.90
40828;DHT22;26549;50.918;5.338;2024-03-23T09:00:53;10.60;99.90
40828;DHT22;26549;50.918;5.338;2024-03-23T09:03:23;10.50;99.90
40828;DHT22;26549;50.918;5.338;2024-03-23T09:05:51;10.60;99.90
40828;DHT22;26549;50.918;5.338;2024-03-23T09:08:19;10.50;99.90
40828;DHT22;26549;50.918;5.338;2024-03-23T09:10:47;10.80;99.90
40828;DHT22;26549;50.918;5.338;2024-03-23T09:13:22;10.80;99.90
40828;DHT22;26549;50.918;5.338;2024-03-23T09:15:53;10.90;99.90
40828;DHT22;26549;50.918;5.338;2024-03-23T09:18:25;10.80;99.90
40828;DHT22;26549;50.918;5.338;2024-03-23T09:20:50;10.70;99.90
40828;DHT22;26549;50.918;5.338;2024-03-23T09:23:21;10.90;99.90
40828;DHT22;26549;50.918;5.338;2024-03-23T09:25:49;10.70;99.90
40828;DHT22;26549;50.918;5.338;2024-03-23T09:28:16;10.50;99.90
40828;DHT22;26549;50.918;5.338;2024-03-23T09:30:43;10.60;99.90
40828;DHT22;26549;50.918;5.338;2024-03-23T09:33:13;10.90;99.90
40828;DHT22;26549;50.918;5.338;2024-03-23T09:35:42;10.60;99.90
40828;DHT22;26549;50.918;5.338;2024-03-23T09:38:08;10.40;99.90
40828;DHT22;26549;50.918;5.338;2024-03-23T09:40:39;10.20;99.90
40828;DHT22;26549;50.918;5.338;2024-03-23T09:43:07;10.40;99.90
40828;DHT22;26549;50.918;5.338;2024-03-23T09:45:36;10.50;99.90
40828;DHT22;26549;50.918;5.338;2024-03-23T09:48:06;10.40;99.90
40828;DHT22;26549;50.918;5.338;2024-03-23T09:50:41;10.60;99.90
40828;DHT22;26549;50.918;5.338;2024-03-23T09:53:15;10.80;99.90
40828;DHT22;26549;50.918;5.338;2024-03-23T09:55:48;10.80;99.90
40828;DHT22;26549;50.918;5.338;2024-03-23T09:58:16;10.60;99.90
40828;DHT22;26549;50.918;5.338;2024-03-23T10:00:43;10.50;99.90
40828;DHT22;26549;50.918;5.338;2024-03-23T10:03:09;10.50;99.90
40828;DHT22;26549;50.918;5.338;2024-03-23T10:05:37;10.40;99.90
40828;DHT22;26549;50.918;5.338;2024-03-23T10:10:43;10.70;99.90
40828;DHT22;26549;50.918;5.338;2024-03-23T10:13:09;10.80;99.90
40828;DHT22;26549;50.918;5.338;2024-03-23T10:15:39;11.10;99.90
40828;DHT22;26549;50.918;5.338;2024-03-23T10:18:25;11.20;99.90
40828;DHT22;26549;50.918;5.338;2024-03-23T10:21:13;10.80;99.90
40828;DHT22;26549;50.918;5.338;2024-03-23T10:23:40;10.50;99.90
40828;DHT22;26549;50.918;5.338;2024-03-23T10:26:13;10.50;99.90
40828;DHT22;26549;50.918;5.338;2024-03-23T10:29:06;10.50;99.90
40828;DHT22;26549;50.918;5.338;2024-03-23T10:31:37;10.50;99.90
40828;DHT22;26549;50.918;5.338;2024-03-23T10:34:14;10.50;99.90
40828;DHT22;26549;50.918;5.338;2024-03-23T10:36:41;10.40;99.90
40828;DHT22;26549;50.918;5.338;2024-03-23T10:39:18;10.60;99.90
40828;DHT22;26549;50.918;5.338;2024-03-23T10:42:20;10.70;99.90
40828;DHT22;26549;50.918;5.338;2024-03-23T10:45:00;10.90;99.90
40828;DHT22;26549;50.918;5.338;2024-03-23T10:47:36;10.70;99.90
40828;DHT22;26549;50.918;5.338;2024-03-23T10:50:06;10.70;99.90
40828;DHT22;26549;50.918;5.338;2024-03-23T10:52:36;11.00;99.90
40828;DHT22;26549;50.918;5.338;2024-03-23T10:55:05;10.80;99.90
40828;DHT22;26549;50.918;5.338;2024-03-23T10:57:41;10.70;99.90
40828;DHT22;26549;50.918;5.338;2024-03-23T11:00:16;10.90;99.90
40828;DHT22;26549;50.918;5.338;2024-03-23T11:02:43;10.80;99.90
40828;DHT22;26549;50.918;5.338;2024-03-23T11:05:46;10.30;99.90
40828;DHT22;26549;50.918;5.338;2024-03-23T11:08:30;10.20;99.90
40828;DHT22;26549;50.918;5.338;2024-03-23T11:11:22;10.20;99.90
40828;DHT22;26549;50.918;5.338;2024-03-23T11:13:57;10.30;99.90
40828;DHT22;26549;50.918;5.338;2024-03-23T11:16:26;10.50;99.90
40828;DHT22;26549;50.918;5.338;2024-03-23T11:22:04;10.70;99.90
40828;DHT22;26549;50.918;5.338;2024-03-23T11:24:31;10.70;99.90
40828;DHT22;26549;50.918;5.338;2024-03-23T11:27:15;10.70;99.90
40828;DHT22;26549;50.918;5.338;2024-03-23T11:33:23;10.90;99.90
40828;DHT22;26549;50.918;5.338;2024-03-23T11:39:19;10.70;99.90
40828;DHT22;26549;50.918;5.338;2024-03-23T11:42:08;10.70;99.90
40828;DHT22;26549;50.918;5.338;2024-03-23T11:44:35;10.80;99.90
40828;DHT22;26549;50.918;5.338;2024-03-23T11:47:08;10.90;99.90
40828;DHT22;26549;50.918;5.338;2024-03-23T11:49:37;10.90;99.90
40828;DHT22;26549;50.918;5.338;2024-03-23T11:52:10;10.90;99.90
40828;DHT22;26549;50.918;5.338;2024-03-23T11:54:39;10.80;99.90
40828;DHT22;26549;50.918;5.338;2024-03-23T12:00:21;10.40;99.90
40828;DHT22;26549;50.918;5.338;2024-03-23T12:03:01;10.30;99.90
40828;DHT22;26549;50.918;5.338;2024-03-23T12:05:49;10.10;99.90
40828;DHT22;26549;50.918;5.338;2024-03-23T12:08:20;10.10;99.90
40828;DHT22;26549;50.918;5.338;2024-03-23T12:11:16;9.50;99.90
40828;DHT22;26549;50.918;5.338;2024-03-23T12:13:44;9.20;99.90
40828;DHT22;26549;50.918;5.338;2024-03-23T12:16:19;9.10;99.90
40828;DHT22;26549;50.918;5.338;2024-03-23T12:18:51;9.20;99.90
40828;DHT22;26549;50.918;5.338;2024-03-23T12:21:17;9.50;99.90
40828;DHT22;26549;50.918;5.338;2024-03-23T12:24:00;9.60;99.90
40828;DHT22;26549;50.918;5.338;2024-03-23T12:26:47;9.60;99.90
40828;DHT22;26549;50.918;5.338;2024-03-23T12:29:16;9.60;99.90
40828;DHT22;26549;50.918;5.338;2024-03-23T12:31:53;9.90;99.90
40828;DHT22;26549;50.918;5.338;2024-03-23T12:34:29;9.90;99.90
40828;DHT22;26549;50.918;5.338;2024-03-23T12:37:00;10.20;99.90
40828;DHT22;26549;50.918;5.338;2024-03-23T12:39:31;10.30;99.90
40828;DHT22;26549;50.918;5.338;2024-03-23T12:41:57;10.30;99.90
40828;DHT22;26549;50.918;5.338;2024-03-23T12:44:25;10.30;99.90
40828;DHT22;26549;50.918;5.338;2024-03-23T12:46:50;10.40;99.90
40828;DHT22;26549;50.918;5.338;2024-03-23T12:49:19;10.60;99.90
40828;DHT22;26549;50.918;5.338;2024-03-23T12:51:55;10.70;99.90
40828;DHT22;26549;50.918;5.338;2024-03-23T12:54:26;10.80;99.90
40828;DHT22;26549;50.918;5.338;2024-03-23T12:56:57;10.90;99.90
40828;DHT22;26549;50.918;5.338;2024-03-23T12:59:23;11.00;99.90
40828;DHT22;26549;50.918;5.338;2024-03-23T13:01:51;11.00;99.90
40828;DHT22;26549;50.918;5.338;2024-03-23T13:04:24;11.00;99.90
40828;DHT22;26549;50.918;5.338;2024-03-23T13:06:57;10.90;99.90
40828;DHT22;26549;50.918;5.338;2024-03-23T13:09:23;10.50;99.90
40828;DHT22;26549;50.918;5.338;2024-03-23T13:11:55;10.40;99.90
40828;DHT22;26549;50.918;5.338;2024-03-23T13:14:21;10.40;99.90
40828;DHT22;26549;50.918;5.338;2024-03-23T13:16:48;10.40;99.90
40828;DHT22;26549;50.918;5.338;2024-03-23T13:19:14;10.00;99.90
40828;DHT22;26549;50.918;5.338;2024-03-23T13:21:40;9.80;99.90
40828;DHT22;26549;50.918;5.338;2024-03-23T13:24:09;9.60;99.90
40828;DHT22;26549;50.918;5.338;2024-03-23T13:26:34;9.90;99.90
40828;DHT22;26549;50.918;5.338;2024-03-23T13:29:00;10.00;99.90
40828;DHT22;26549;50.918;5.338;2024-03-23T13:31:26;10.20;99.90
40828;DHT22;26549;50.918;5.338;2024-03-23T13:33:52;10.20;99.90
40828;DHT22;26549;50.918;5.338;2024-03-23T13:36:19;10.30;99.90
40828;DHT22;26549;50.918;5.338;2024-03-23T13:38:45;10.30;99.90
40828;DHT22;26549;50.918;5.338;2024-03-23T13:41:11;10.50;99.90
40828;DHT22;26549;50.918;5.338;2024-03-23T13:43:40;10.70;99.90
40828;DHT22;26549;50.918;5.338;2024-03-23T13:46:06;11.00;99.90
40828;DHT22;26549;50.918;5.338;2024-03-23T13:48:32;11.20;99.90
40828;DHT22;26549;50.918;5.338;2024-03-23T13:51:00;11.40;99.90
40828;DHT22;26549;50.918;5.338;2024-03-23T13:53:26;11.50;99.90
40828;DHT22;26549;50.918;5.338;2024-03-23T13:55:52;11.70;99.90
40828;DHT22;26549;50.918;5.338;2024-03-23T13:58:21;11.80;99.90
40828;DHT22;26549;50.918;5.338;2024-03-23T14:00:47;12.10;99.90
40828;DHT22;26549;50.918;5.338;2024-03-23T14:03:14;12.00;99.90
40828;DHT22;26549;50.918;5.338;2024-03-23T14:05:41;12.10;99.90
40828;DHT22;26549;50.918;5.338;2024-03-23T14:08:11;12.10;99.90
40828;DHT22;26549;50.918;5.338;2024-03-23T14:10:39;12.00;99.90
40828;DHT22;26549;50.918;5.338;2024-03-23T14:13:06;11.80;99.90
40828;DHT22;26549;50.918;5.338;2024-03-23T14:15:32;11.40;99.90
40828;DHT22;26549;50.918;5.338;2024-03-23T14:18:06;11.30;99.90
40828;DHT22;26549;50.918;5.338;2024-03-23T14:20:51;11.40;99.90
40828;DHT22;26549;50.918;5.338;2024-03-23T14:23:17;11.10;99.90
40828;DHT22;26549;50.918;5.338;2024-03-23T14:25:43;10.90;99.90
40828;DHT22;26549;50.918;5.338;2024-03-23T14:28:09;10.50;99.90
40828;DHT22;26549;50.918;5.338;2024-03-23T14:30:41;10.40;99.90
40828;DHT22;26549;50.918;5.338;2024-03-23T14:33:07;10.60;99.90
40828;DHT22;26549;50.918;5.338;2024-03-23T14:35:33;10.50;99.90
40828;DHT22;26549;50.918;5.338;2024-03-23T14:37:59;10.70;99.90
40828;DHT22;26549;50.918;5.338;2024-03-23T14:40:25;11.00;99.90
40828;DHT22;26549;50.918;5.338;2024-03-23T14:42:57;10.80;99.90
40828;DHT22;26549;50.918;5.338;2024-03-23T14:45:28;11.10;99.90
40828;DHT22;26549;50.918;5.338;2024-03-23T14:47:59;11.20;99.90
40828;DHT22;26549;50.918;5.338;2024-03-23T14:50:28;11.10;99.90
40828;DHT22;26549;50.918;5.338;2024-03-23T14:52:57;11.00;99.90
40828;DHT22;26549;50.918;5.338;2024-03-23T14:55:23;10.90;99.90
40828;DHT22;26549;50.918;5.338;2024-03-23T14:57:49;11.00;99.90
40828;DHT22;26549;50.918;5.338;2024-03-23T15:00:17;11.00;99.90
40828;DHT22;26549;50.918;5.338;2024-03-23T15:02:44;11.00;99.90
40828;DHT22;26549;50.918;5.338;2024-03-23T15:05:11;10.90;99.90
40828;DHT22;26549;50.918;5.338;2024-03-23T15:07:37;11.00;99.90
40828;DHT22;26549;50.918;5.338;2024-03-23T15:10:06;11.10;99.90
40828;DHT22;26549;50.918;5.338;2024-03-23T15:12:32;11.30;99.90
40828;DHT22;26549;50.918;5.338;2024-03-23T15:14:59;11.30;99.90
40828;DHT22;26549;50.918;5.338;2024-03-23T15:17:26;11.30;99.90
40828;DHT22;26549;50.918;5.338;2024-03-23T15:19:51;11.00;99.90
40828;DHT22;26549;50.918;5.338;2024-03-23T15:22:19;10.80;99.90
40828;DHT22;26549;50.918;5.338;2024-03-23T15:24:46;10.60;99.90
40828;DHT22;26549;50.918;5.338;2024-03-23T15:27:12;10.60;99.90
40828;DHT22;26549;50.918;5.338;2024-03-23T15:29:38;10.80;99.90
40828;DHT22;26549;50.918;5.338;2024-03-23T15:32:04;10.70;99.90
40828;DHT22;26549;50.918;5.338;2024-03-23T15:34:30;10.90;99.90
40828;DHT22;26549;50.918;5.338;2024-03-23T15:36:56;10.70;99.90
40828;DHT22;26549;50.918;5.338;2024-03-23T15:39:21;11.00;99.90
40828;DHT22;26549;50.918;5.338;2024-03-23T15:41:48;10.90;99.90
40828;DHT22;26549;50.918;5.338;2024-03-23T15:44:14;10.80;99.90
40828;DHT22;26549;50.918;5.338;2024-03-23T15:46:40;10.70;99.90
40828;DHT22;26549;50.918;5.338;2024-03-23T15:49:06;10.70;99.90
40828;DHT22;26549;50.918;5.338;2024-03-23T15:51:32;10.70;99.90
40828;DHT22;26549;50.918;5.338;2024-03-23T15:54:00;10.60;99.90
40828;DHT22;26549;50.918;5.338;2024-03-23T15:56:26;10.60;99.90
40828;DHT22;26549;50.918;5.338;2024-03-23T15:58:51;10.70;99.90
40828;DHT22;26549;50.918;5.338;2024-03-23T16:01:17;10.80;99.90
40828;DHT22;26549;50.918;5.338;2024-03-23T16:03:43;10.70;99.90
40828;DHT22;26549;50.918;5.338;2024-03-23T16:06:09;10.60;99.90
40828;DHT22;26549;50.918;5.338;2024-03-23T16:08:35;10.70;99.90
40828;DHT22;26549;50.918;5.338;2024-03-23T16:11:04;10.70;99.90
40828;DHT22;26549;50.918;5.338;2024-03-23T16:13:31;10.70;99.90
40828;DHT22;26549;50.918;5.338;2024-03-23T16:16:02;10.80;99.90
40828;DHT22;26549;50.918;5.338;2024-03-23T16:18:36;10.90;99.90
40828;DHT22;26549;50.918;5.338;2024-03-23T16:21:04;10.90;99.90
40828;DHT22;26549;50.918;5.338;2024-03-23T16:23:32;10.80;99.90
40828;DHT22;26549;50.918;5.338;2024-03-23T16:25:58;10.70;99.90
40828;DHT22;26549;50.918;5.338;2024-03-23T16:28:31;10.70;99.90
40828;DHT22;26549;50.918;5.338;2024-03-23T16:31:01;10.60;99.90
40828;DHT22;26549;50.918;5.338;2024-03-23T16:33:28;10.80;99.90
40828;DHT22;26549;50.918;5.338;2024-03-23T16:38:23;10.80;99.90
40828;DHT22;26549;50.918;5.338;2024-03-23T16:41:11;10.90;99.90
40828;DHT22;26549;50.918;5.338;2024-03-23T16:43:44;10.90;99.90
40828;DHT22;26549;50.918;5.338;2024-03-23T16:46:12;10.70;99.90
40828;DHT22;26549;50.918;5.338;2024-03-23T16:48:38;10.50;99.90
40828;DHT22;26549;50.918;5.338;2024-03-23T16:51:08;10.50;99.90
40828;DHT22;26549;50.918;5.338;2024-03-23T16:53:34;10.50;99.90
40828;DHT22;26549;50.918;5.338;2024-03-23T16:56:05;10.50;99.90
40828;DHT22;26549;50.918;5.338;2024-03-23T16:58:33;10.50;99.90